Terminal Aerodrome Forecast
Issued by NWS

Home | Current Version | Previous Version | Text Only | Print | Product List | Glossary On
Versions: 1 2 3 4 5 6 7 8 9 10 11 12 13 14 15 16 17 18 19 20
000
FTUS41 KOKX 192300
TAFSWF
TAF
KSWF 192320Z 2000/2106 31007KT P6SM SCT220
     FM200400 VRB02KT P6SM SCT220
     FM201400 27006KT P6SM BKN120
     FM201700 24008KT P6SM FEW040 BKN100
     FM202000 22006KT P6SM SCT035 OVC100
     FM210100 23006KT P6SM -RA BKN035 OVC080
      AMD NOT SKED=

USA.gov is the U.S. government's official web portal to all federal, state and local government web resources and services.